createdAt,value
2018-06-01T00:00:57.422Z,25.90
2018-06-01T00:03:25.679Z,25.90
2018-06-01T00:05:53.913Z,25.70
2018-06-01T00:08:22.144Z,25.60
2018-06-01T00:10:50.418Z,25.60
2018-06-01T00:13:18.694Z,25.70
2018-06-01T00:15:46.915Z,25.70
2018-06-01T00:18:15.168Z,25.70
2018-06-01T00:20:44.169Z,25.80
2018-06-01T00:23:12.420Z,25.70
2018-06-01T00:25:40.667Z,25.80
2018-06-01T00:28:08.897Z,25.80
2018-06-01T00:30:37.144Z,25.70
2018-06-01T00:33:05.397Z,25.70
2018-06-01T00:35:33.620Z,25.70
2018-06-01T00:38:01.876Z,25.60
2018-06-01T00:40:30.104Z,25.60
2018-06-01T00:42:58.352Z,25.40
2018-06-01T00:45:26.582Z,25.40
2018-06-01T00:47:54.848Z,25.40
2018-06-01T00:50:23.077Z,25.40
2018-06-01T00:52:52.083Z,25.40
2018-06-01T00:55:25.237Z,25.30
2018-06-01T00:57:53.466Z,25.40
2018-06-01T01:00:21.723Z,25.40
2018-06-01T01:02:49.943Z,25.30
2018-06-01T01:05:18.164Z,25.20
2018-06-01T01:07:47.178Z,25.20
2018-06-01T01:10:15.423Z,25.10
2018-06-01T01:12:44.466Z,25.10
2018-06-01T01:15:12.699Z,25.00
2018-06-01T01:17:41.689Z,25.10
2018-06-01T01:20:10.704Z,25.10
2018-06-01T01:22:38.933Z,25.10
2018-06-01T01:25:07.182Z,25.00
2018-06-01T01:27:35.405Z,25.00
2018-06-01T01:30:03.647Z,24.90
2018-06-01T01:32:31.897Z,24.80
2018-06-01T01:35:00.139Z,24.80
2018-06-01T01:37:33.019Z,24.90
2018-06-01T01:40:01.241Z,24.80
2018-06-01T01:42:29.500Z,24.90
2018-06-01T01:44:57.727Z,24.80
2018-06-01T01:47:25.960Z,24.70
2018-06-01T01:49:54.181Z,24.60
2018-06-01T01:52:22.433Z,24.60
2018-06-01T01:54:50.677Z,24.60
2018-06-01T01:57:18.910Z,24.50
2018-06-01T01:59:47.140Z,24.50
2018-06-01T02:02:15.372Z,24.60
2018-06-01T02:04:43.617Z,24.60
2018-06-01T02:07:11.846Z,24.60
2018-06-01T02:09:40.871Z,24.60
2018-06-01T02:12:09.092Z,24.50
2018-06-01T02:14:37.340Z,24.60
2018-06-01T02:17:05.579Z,24.60
2018-06-01T02:19:33.852Z,24.60
2018-06-01T02:22:02.071Z,24.50
2018-06-01T02:24:30.298Z,24.50
2018-06-01T02:26:58.554Z,24.50
2018-06-01T02:29:26.770Z,24.50
2018-06-01T02:31:55.016Z,24.50
2018-06-01T02:34:24.028Z,24.50
2018-06-01T02:36:52.263Z,24.50
2018-06-01T02:39:20.510Z,24.50
2018-06-01T02:41:48.752Z,24.50
2018-06-01T02:44:16.967Z,24.50
2018-06-01T02:46:45.213Z,24.50
2018-06-01T02:49:13.463Z,24.50
2018-06-01T02:51:42.466Z,24.50
2018-06-01T02:54:11.447Z,24.40
2018-06-01T02:56:40.464Z,24.40
2018-06-01T02:59:08.695Z,24.40
2018-06-01T03:01:36.930Z,24.40
2018-06-01T03:04:05.197Z,24.40
2018-06-01T03:06:48.220Z,24.40
2018-06-01T03:09:16.444Z,24.40
2018-06-01T03:11:44.687Z,24.40
2018-06-01T03:14:12.940Z,24.30
2018-06-01T03:16:41.186Z,24.40
2018-06-01T03:19:09.436Z,24.40
2018-06-01T03:21:37.663Z,24.40
2018-06-01T03:24:05.913Z,24.40
2018-06-01T03:26:34.149Z,24.40
2018-06-01T03:29:02.408Z,24.40
2018-06-01T03:31:30.631Z,24.40
2018-06-01T03:33:58.882Z,24.40
2018-06-01T03:36:27.142Z,24.40
2018-06-01T03:38:55.367Z,24.40
2018-06-01T03:41:23.608Z,24.40
2018-06-01T03:43:51.853Z,24.40
2018-06-01T06:02:39.759Z,24.80
2018-06-01T06:05:07.969Z,24.90
2018-06-01T06:07:37.007Z,24.90
2018-06-01T06:10:05.242Z,24.90
2018-06-01T06:12:34.295Z,24.80
2018-06-01T06:15:02.558Z,24.80
2018-06-01T06:17:30.806Z,24.90
2018-06-01T06:19:59.061Z,24.90
2018-06-01T06:22:28.080Z,24.90
2018-06-01T06:24:56.340Z,24.90
2018-06-01T06:27:25.330Z,25.00
2018-06-01T06:29:54.379Z,25.10
2018-06-01T06:32:22.593Z,25.00
2018-06-01T06:34:50.821Z,25.10
2018-06-01T06:37:19.089Z,25.20
2018-06-01T06:39:47.394Z,25.20
2018-06-01T06:42:15.969Z,25.20
2018-06-01T06:44:44.288Z,25.20
2018-06-01T06:47:12.539Z,25.20
2018-06-01T06:49:40.829Z,25.30
2018-06-01T06:52:09.072Z,25.30
2018-06-01T06:54:38.109Z,25.40
2018-06-01T06:57:07.111Z,25.30
2018-06-01T06:59:36.116Z,25.40
2018-06-01T07:02:04.367Z,25.30
2018-06-01T07:04:32.606Z,25.40
2018-06-01T07:07:00.885Z,25.50
2018-06-01T07:09:29.115Z,25.50
2018-06-01T07:11:57.355Z,25.50
2018-06-01T07:14:25.646Z,25.60
2018-06-01T07:16:53.837Z,25.60
2018-06-01T07:19:22.883Z,25.60
2018-06-01T07:21:51.153Z,25.60
2018-06-01T07:24:19.407Z,25.60
2018-06-01T07:26:47.631Z,25.70
2018-06-01T07:29:15.902Z,25.70
2018-06-01T07:31:44.142Z,25.80
2018-06-01T07:34:12.409Z,25.90
2018-06-01T07:36:40.639Z,26.00
2018-06-01T07:39:08.870Z,26.00
2018-06-01T07:41:37.142Z,26.00
2018-06-01T07:44:05.403Z,26.00
2018-06-01T07:46:33.644Z,26.00
2018-06-01T07:49:01.897Z,26.10
2018-06-01T07:51:30.139Z,26.10
2018-06-01T07:53:58.368Z,26.20
2018-06-01T07:56:26.620Z,26.20
2018-06-01T07:58:54.887Z,26.20
2018-06-01T08:01:23.134Z,26.20
2018-06-01T08:03:52.156Z,26.30
2018-06-01T08:06:20.417Z,26.30
2018-06-01T08:08:48.677Z,26.30
2018-06-01T08:11:18.420Z,26.40
2018-06-01T08:13:46.731Z,26.40
2018-06-01T08:16:14.972Z,26.50
2018-06-01T08:18:43.214Z,26.60
2018-06-01T08:21:12.256Z,26.80
2018-06-01T08:23:40.510Z,26.70
2018-06-01T08:26:08.745Z,26.80
2018-06-01T08:28:37.049Z,26.90
2018-06-01T08:31:05.332Z,27.10
2018-06-01T08:33:33.579Z,27.00
2018-06-01T08:36:01.828Z,27.00
2018-06-01T08:38:30.852Z,27.10
2018-06-01T08:40:59.106Z,27.10
2018-06-01T08:43:27.377Z,27.20
2018-06-01T08:45:55.683Z,27.30
2018-06-01T08:48:23.964Z,27.30
2018-06-01T08:50:52.216Z,27.30
2018-06-01T08:53:20.439Z,27.30
2018-06-01T08:55:48.710Z,27.40
2018-06-01T08:58:16.973Z,27.40
2018-06-01T09:00:45.231Z,27.40
2018-06-01T09:03:13.528Z,27.40
2018-06-01T09:05:41.749Z,27.40
2018-06-01T09:08:09.982Z,27.40
2018-06-01T09:10:39.021Z,27.40
2018-06-01T09:13:07.263Z,27.40
2018-06-01T09:15:35.553Z,27.40
2018-06-01T09:18:04.567Z,27.40
2018-06-01T09:20:32.795Z,27.40
2018-06-01T09:23:01.808Z,27.40
2018-06-01T09:25:30.050Z,27.40
2018-06-01T09:27:58.332Z,27.40
2018-06-01T09:30:26.567Z,27.50
2018-06-01T09:32:54.825Z,27.60
2018-06-01T09:35:23.056Z,27.60
2018-06-01T09:37:51.300Z,27.70
2018-06-01T09:40:19.525Z,27.80
2018-06-01T09:42:48.532Z,27.80
2018-06-01T09:45:16.822Z,27.80
2018-06-01T09:47:45.812Z,27.90
2018-06-01T09:50:14.046Z,27.90
2018-06-01T09:52:42.315Z,28.00
2018-06-01T09:55:10.548Z,28.10
2018-06-01T09:57:38.780Z,28.20
2018-06-01T10:00:07.042Z,28.20
2018-06-01T10:02:35.281Z,28.20
2018-06-01T10:05:03.546Z,28.20
2018-06-01T10:07:31.787Z,28.20
2018-06-01T10:10:05.801Z,28.20
2018-06-01T10:12:34.053Z,28.30
2018-06-01T10:15:02.289Z,28.30
2018-06-01T10:17:30.559Z,28.30
2018-06-01T10:19:58.804Z,28.40
2018-06-01T10:22:27.041Z,28.40
2018-06-01T10:24:55.273Z,28.40
2018-06-01T10:27:24.295Z,28.50
2018-06-01T10:29:52.557Z,28.50
2018-06-01T10:32:21.557Z,28.40
2018-06-01T10:34:49.788Z,28.40
2018-06-01T10:37:18.047Z,28.50
2018-06-01T10:39:46.304Z,28.50
2018-06-01T10:42:14.553Z,28.50
2018-06-01T10:44:42.806Z,28.50
2018-06-01T10:47:11.840Z,28.60
2018-06-01T10:49:40.045Z,28.50
2018-06-01T10:52:08.314Z,28.60
2018-06-01T10:54:36.577Z,28.60
2018-06-01T10:57:04.885Z,28.60
2018-06-01T10:59:33.142Z,28.60
2018-06-01T11:02:01.380Z,28.60
2018-06-01T11:04:30.410Z,28.70
2018-06-01T11:06:59.436Z,28.80
2018-06-01T11:09:27.684Z,28.70
2018-06-01T11:11:55.924Z,28.80
2018-06-01T11:14:24.212Z,28.90
2018-06-01T11:16:53.188Z,28.90
2018-06-01T11:19:21.475Z,28.80
2018-06-01T11:21:50.450Z,28.70
2018-06-01T11:24:18.701Z,28.70
2018-06-01T11:26:46.948Z,28.70
2018-06-01T11:29:15.172Z,28.70
2018-06-01T11:31:44.183Z,28.50
2018-06-01T11:34:12.420Z,28.50
2018-06-01T11:36:40.665Z,28.50
2018-06-01T11:39:08.898Z,28.50
2018-06-01T11:41:37.908Z,28.50
2018-06-01T11:44:06.932Z,28.50
2018-06-01T11:46:35.169Z,28.50
2018-06-01T11:49:04.181Z,28.60
2018-06-01T11:51:32.441Z,28.60
2018-06-01T11:54:01.435Z,28.80
2018-06-01T11:56:30.445Z,28.80
2018-06-01T11:58:58.669Z,28.80
2018-06-01T12:01:26.952Z,28.90
2018-06-01T12:03:55.192Z,28.90
2018-06-01T12:06:23.511Z,28.90
2018-06-01T12:08:51.742Z,28.90
2018-06-01T12:11:20.020Z,28.90
2018-06-01T12:13:49.241Z,29.00
2018-06-01T12:16:17.470Z,29.10
2018-06-01T12:18:45.705Z,29.10
2018-06-01T12:21:13.929Z,29.20
2018-06-01T12:23:42.201Z,29.20
2018-06-01T12:26:10.445Z,29.30
2018-06-01T12:28:38.679Z,29.40
2018-06-01T12:31:06.901Z,29.50
2018-06-01T12:33:35.133Z,29.50
2018-06-01T12:36:03.380Z,29.50
2018-06-01T12:38:31.641Z,29.60
2018-06-01T12:41:00.657Z,29.80
2018-06-01T12:43:28.912Z,29.80
2018-06-01T12:45:57.148Z,29.90
2018-06-01T12:48:25.387Z,29.90
2018-06-01T12:50:53.758Z,30.00
2018-06-01T12:53:21.981Z,29.90
2018-06-01T12:55:50.224Z,30.00
2018-06-01T12:58:18.490Z,29.90
2018-06-01T13:00:47.455Z,30.00
2018-06-01T13:03:16.471Z,30.00
2018-06-01T13:05:45.454Z,30.00
2018-06-01T13:08:13.688Z,30.00
2018-06-01T13:10:41.912Z,30.00
2018-06-01T13:13:10.213Z,30.00
2018-06-01T13:15:38.558Z,30.00
2018-06-01T13:18:07.900Z,30.10
2018-06-01T13:20:36.223Z,30.00
2018-06-01T13:23:04.376Z,30.10
2018-06-01T13:25:32.611Z,30.00
2018-06-01T13:28:00.832Z,29.90
2018-06-01T13:30:29.092Z,30.00
2018-06-01T13:32:57.312Z,30.00
2018-06-01T13:35:26.357Z,29.80
2018-06-01T13:37:54.652Z,29.80
2018-06-01T13:40:22.917Z,29.90
2018-06-01T13:42:51.219Z,29.90
2018-06-01T13:45:19.462Z,29.90
2018-06-01T13:47:47.689Z,29.90
2018-06-01T13:50:15.941Z,29.90
2018-06-01T13:52:44.196Z,29.90
2018-06-01T13:55:12.436Z,29.80
2018-06-01T14:00:16.885Z,29.80
2018-06-01T14:02:45.128Z,29.80
2018-06-01T14:05:13.368Z,29.90
2018-06-01T14:07:42.559Z,29.90
2018-06-01T14:10:10.781Z,29.90
2018-06-01T14:12:39.778Z,29.90
2018-06-01T14:15:08.029Z,29.80
2018-06-01T14:17:36.276Z,29.90
2018-06-01T14:20:04.533Z,29.90
2018-06-01T14:22:32.810Z,29.80
2018-06-01T14:25:01.079Z,29.70
2018-06-01T14:27:29.355Z,29.70
2018-06-01T14:29:57.602Z,29.70
2018-06-01T14:32:25.868Z,29.60
2018-06-01T14:34:54.104Z,29.60
2018-06-01T14:37:22.368Z,29.70
2018-06-01T14:39:51.351Z,29.70
2018-06-01T14:42:19.585Z,29.70
2018-06-01T14:44:47.835Z,29.70
2018-06-01T14:47:16.084Z,29.60
2018-06-01T14:49:44.324Z,29.70
2018-06-01T14:52:12.600Z,29.60
2018-06-01T14:54:40.830Z,29.60
2018-06-01T14:57:09.085Z,29.60
2018-06-01T14:59:37.310Z,29.60
2018-06-01T15:02:05.540Z,29.60
2018-06-01T15:04:33.780Z,29.50
2018-06-01T15:07:02.012Z,29.40
2018-06-01T15:09:30.290Z,29.40
2018-06-01T15:11:58.546Z,29.40
2018-06-01T15:14:27.556Z,29.40
2018-06-01T15:16:55.781Z,29.40
2018-06-01T15:19:24.042Z,29.50
2018-06-01T15:21:52.269Z,29.50
2018-06-01T15:24:21.271Z,29.50
2018-06-01T15:26:49.492Z,29.50
2018-06-01T15:29:17.707Z,29.50
2018-06-01T15:31:45.960Z,29.40
2018-06-01T15:34:14.233Z,29.40
2018-06-01T15:36:42.484Z,29.30
2018-06-01T15:39:10.689Z,29.40
2018-06-01T15:41:38.960Z,29.40
2018-06-01T15:44:07.143Z,29.40
2018-06-01T15:46:36.164Z,29.50
2018-06-01T15:49:04.461Z,29.40
2018-06-01T15:51:32.676Z,29.50
2018-06-01T15:54:00.983Z,29.50
2018-06-01T15:56:29.983Z,29.60
2018-06-01T15:58:58.191Z,29.50
2018-06-01T16:01:27.223Z,29.70
2018-06-01T16:03:55.470Z,29.60
2018-06-01T16:06:23.743Z,29.80
2018-06-01T16:08:51.983Z,29.80
2018-06-01T16:11:20.204Z,29.90
2018-06-01T16:13:48.451Z,29.90
2018-06-01T16:16:16.718Z,29.90
2018-06-01T16:18:44.943Z,29.90
2018-06-01T16:21:13.217Z,29.90
2018-06-01T16:23:41.428Z,29.90
2018-06-01T16:26:09.661Z,29.80
2018-06-01T16:28:37.886Z,29.80
2018-06-01T16:31:06.163Z,29.70
2018-06-01T16:33:34.414Z,29.50
2018-06-01T16:36:02.635Z,29.30
2018-06-01T16:38:30.891Z,29.10
2018-06-01T16:40:59.128Z,28.80
2018-06-01T16:43:27.388Z,28.60
2018-06-01T16:45:55.617Z,28.40
2018-06-01T16:48:23.864Z,28.10
2018-06-01T16:50:52.112Z,27.80
2018-06-01T16:53:20.360Z,27.70
2018-06-01T16:55:48.617Z,27.50
2018-06-01T16:58:16.896Z,27.40
2018-06-01T17:00:45.876Z,27.30
2018-06-01T17:03:14.901Z,27.30
2018-06-01T17:05:43.139Z,27.30
2018-06-01T17:08:11.377Z,26.90
2018-06-01T17:10:39.625Z,26.40
2018-06-01T17:13:07.854Z,26.50
2018-06-01T17:15:36.150Z,26.70
2018-06-01T17:18:04.340Z,26.80
2018-06-01T17:20:32.620Z,26.90
2018-06-01T17:23:00.837Z,26.90
2018-06-01T17:25:29.079Z,26.80
2018-06-01T17:27:57.342Z,26.50
2018-06-01T17:30:26.378Z,26.10
2018-06-01T17:32:54.604Z,26.00
2018-06-01T17:35:23.634Z,26.40
2018-06-01T17:37:51.877Z,26.30
2018-06-01T17:40:20.087Z,26.50
2018-06-01T17:42:48.333Z,26.50
2018-06-01T17:45:17.354Z,26.30
2018-06-01T17:47:45.595Z,26.20
2018-06-01T17:50:14.592Z,26.30
2018-06-01T17:52:44.600Z,26.30
2018-06-01T17:55:12.841Z,26.30
2018-06-01T17:57:41.065Z,26.20
2018-06-01T18:00:10.092Z,26.00
2018-06-01T18:02:38.341Z,26.00
2018-06-01T18:05:07.335Z,26.00
2018-06-01T18:07:36.350Z,26.00
2018-06-01T18:10:04.593Z,25.90
2018-06-01T18:12:33.627Z,25.80
2018-06-01T18:15:01.869Z,25.80
2018-06-01T18:17:30.856Z,25.60
2018-06-01T18:19:59.958Z,25.80
2018-06-01T18:22:28.987Z,25.70
2018-06-01T18:24:57.208Z,26.00
2018-06-01T18:27:25.454Z,25.90
2018-06-01T18:29:53.693Z,25.70
2018-06-01T18:32:21.939Z,25.70
2018-06-01T18:34:50.182Z,25.30
2018-06-01T18:37:18.446Z,25.30
2018-06-01T18:39:46.696Z,25.00
2018-06-01T18:42:14.969Z,25.00
2018-06-01T18:44:43.218Z,25.20
2018-06-01T18:47:11.466Z,25.40
2018-06-01T18:49:39.722Z,25.40
2018-06-01T18:52:08.006Z,24.80
2018-06-01T18:54:36.229Z,24.00
2018-06-01T18:57:04.539Z,23.80
2018-06-01T18:59:32.765Z,23.60
2018-06-01T19:02:01.043Z,23.60
2018-06-01T19:04:29.254Z,23.80
2018-06-01T19:06:57.552Z,23.90
2018-06-01T19:09:25.929Z,23.70
2018-06-01T19:11:54.193Z,23.40
2018-06-01T19:14:22.434Z,23.30
2018-06-01T19:16:51.444Z,23.10
2018-06-01T19:19:20.435Z,23.00
2018-06-01T19:21:49.462Z,22.90
2018-06-01T19:24:17.689Z,22.90
2018-06-01T19:26:45.960Z,22.90
2018-06-01T19:29:14.191Z,22.70
2018-06-01T19:31:42.416Z,22.60
2018-06-01T19:34:10.670Z,22.70
2018-06-01T19:36:38.904Z,22.70
2018-06-01T19:39:07.153Z,22.70
2018-06-01T19:41:35.400Z,22.60
2018-06-01T19:44:03.631Z,22.50
2018-06-01T19:46:31.862Z,22.50
2018-06-01T19:49:00.129Z,22.70
2018-06-01T19:51:28.441Z,22.70
2018-06-01T19:53:56.643Z,22.60
2018-06-01T19:56:24.879Z,22.60
2018-06-01T19:58:53.308Z,22.50
2018-06-01T20:01:21.538Z,22.30
2018-06-01T20:03:49.970Z,22.40
2018-06-01T20:06:18.201Z,22.50
2018-06-01T20:08:46.460Z,22.40
2018-06-01T20:11:14.687Z,22.60
2018-06-01T20:13:42.934Z,22.80
2018-06-01T20:16:11.924Z,23.30
2018-06-01T20:18:40.185Z,23.30
2018-06-01T20:21:08.421Z,23.50
2018-06-01T20:23:36.660Z,23.80
2018-06-01T20:26:05.717Z,23.60
2018-06-01T20:28:33.936Z,23.60
2018-06-01T20:31:02.944Z,23.50
2018-06-01T20:33:31.166Z,23.40
2018-06-01T20:35:59.501Z,23.60
2018-06-01T20:38:27.741Z,23.70
2018-06-01T20:40:56.128Z,23.90
2018-06-01T20:43:24.345Z,23.90
2018-06-01T20:45:52.584Z,23.80
2018-06-01T20:48:21.589Z,23.70
2018-06-01T20:50:50.610Z,23.80
2018-06-01T20:53:18.878Z,23.80
2018-06-01T20:55:47.096Z,23.80
2018-06-01T20:58:15.402Z,23.90
2018-06-01T21:00:43.633Z,23.80
2018-06-01T21:03:11.897Z,23.80
2018-06-01T21:05:40.176Z,23.80
2018-06-01T21:08:08.426Z,23.70
2018-06-01T21:10:36.661Z,23.80
2018-06-01T21:13:04.900Z,23.70
2018-06-01T21:15:33.129Z,23.80
2018-06-01T21:18:01.423Z,23.90
2018-06-01T21:20:30.410Z,24.00
2018-06-01T21:22:58.663Z,24.00
2018-06-01T21:25:27.665Z,24.00
2018-06-01T21:27:55.922Z,24.00
2018-06-01T21:30:24.181Z,24.00
2018-06-01T21:32:52.415Z,24.00
2018-06-01T21:35:21.415Z,24.00
2018-06-01T21:37:49.687Z,23.90
2018-06-01T21:40:18.703Z,24.00
2018-06-01T21:42:46.937Z,24.00
2018-06-01T21:45:15.265Z,24.00
2018-06-01T21:47:43.491Z,24.00
2018-06-01T21:50:11.747Z,24.00
2018-06-01T21:52:39.989Z,24.00
2018-06-01T21:55:08.241Z,24.00
2018-06-01T21:57:37.287Z,23.90
2018-06-01T22:00:05.949Z,23.90
2018-06-01T22:02:34.153Z,23.90
2018-06-01T22:05:02.445Z,23.80
2018-06-01T22:07:30.672Z,23.70
2018-06-01T22:09:58.951Z,23.80
2018-06-01T22:12:27.221Z,23.80
2018-06-01T22:14:55.472Z,23.80
2018-06-01T22:17:24.489Z,23.70
2018-06-01T22:19:52.728Z,23.70
2018-06-01T22:22:20.963Z,23.50
2018-06-01T22:24:49.218Z,23.40
2018-06-01T22:27:17.460Z,23.40
2018-06-01T22:29:46.454Z,23.60
2018-06-01T22:32:14.710Z,23.60
2018-06-01T22:34:42.946Z,23.70
2018-06-01T22:37:11.196Z,23.60
2018-06-01T22:39:39.431Z,23.60
2018-06-01T22:42:07.695Z,23.60
2018-06-01T22:44:35.914Z,23.40
2018-06-01T22:47:04.171Z,23.40
2018-06-01T22:49:32.416Z,23.40
2018-06-01T22:52:00.642Z,23.20
2018-06-01T22:54:29.676Z,23.30
2018-06-01T22:56:57.907Z,23.30
2018-06-01T22:59:26.151Z,23.40
2018-06-01T23:01:54.393Z,23.40
2018-06-01T23:04:22.624Z,23.40
2018-06-01T23:06:50.857Z,23.50
2018-06-01T23:09:19.147Z,23.50
2018-06-01T23:11:47.376Z,23.50
2018-06-01T23:14:16.377Z,23.40
2018-06-01T23:16:45.379Z,23.30
2018-06-01T23:19:13.631Z,23.30
2018-06-01T23:21:41.871Z,23.30
2018-06-01T23:24:10.103Z,23.40
2018-06-01T23:26:38.338Z,23.30
2018-06-01T23:29:06.580Z,23.40
2018-06-01T23:31:34.819Z,23.30
2018-06-01T23:34:03.827Z,23.30
2018-06-01T23:36:32.069Z,23.30
2018-06-01T23:39:00.321Z,23.30
2018-06-01T23:41:28.580Z,23.20
2018-06-01T23:43:56.820Z,23.10
2018-06-01T23:46:25.811Z,23.10
2018-06-01T23:48:54.822Z,23.10
2018-06-01T23:51:23.046Z,23.10
2018-06-01T23:53:51.298Z,23.20
2018-06-01T23:56:19.538Z,23.10
2018-06-01T23:58:47.799Z,23.00
